Time;durP1;ratioP1;P1;durP2;ratioP2;P2;SDS_P1;SDS_P2;PMS_P1;PMS_P2;Temp;Humidity;BMP_temperature;BMP_pressure;BME280_temperature;BME280_humidity;BME280_pressure;Samples;Min_cycle;Max_cycle;Signal;HPM_P1;HPM_P2
2022/04/16 00:00:55;;;;;;;4.53;3.57;;;8.50;99.90;;;;;;5013949;28;20539;-79
2022/04/16 00:03:21;;;;;;;4.90;3.60;;;8.50;99.90;;;;;;5013243;28;20029;-79
2022/04/16 00:05:48;;;;;;;5.07;3.97;;;8.30;99.90;;;;;;5013943;28;20034;-80
2022/04/16 00:08:15;;;;;;;4.73;3.50;;;8.40;99.90;;;;;;5013944;28;20034;-80
2022/04/16 00:10:40;;;;;;;4.10;3.43;;;8.50;99.90;;;;;;5014244;28;20473;-80
2022/04/16 00:13:06;;;;;;;4.10;3.27;;;8.60;99.90;;;;;;5014008;28;20037;-79
2022/04/16 00:15:31;;;;;;;4.60;3.77;;;8.50;99.90;;;;;;5014015;28;20433;-80
2022/04/16 00:17:58;;;;;;;5.87;3.90;;;8.50;99.90;;;;;;5028785;28;20493;-80
2022/04/16 00:20:27;;;;;;;5.80;3.93;;;8.50;99.90;;;;;;5013967;28;20033;-80
2022/04/16 00:22:53;;;;;;;4.43;3.53;;;8.40;99.90;;;;;;5013897;28;20459;-79
2022/04/16 00:25:19;;;;;;;4.57;3.60;;;8.30;99.90;;;;;;5014197;28;20109;-80
2022/04/16 00:27:45;;;;;;;5.10;3.80;;;8.40;99.90;;;;;;5013088;28;20473;-79
2022/04/16 00:30:10;;;;;;;4.07;3.37;;;8.40;99.90;;;;;;5013714;28;20366;-79
2022/04/16 00:32:36;;;;;;;5.37;3.80;;;8.40;99.90;;;;;;5013510;28;20061;-80
2022/04/16 00:35:02;;;;;;;6.40;3.30;;;8.40;99.90;;;;;;5013513;28;20111;-79
2022/04/16 00:37:28;;;;;;;5.73;4.07;;;8.40;99.90;;;;;;5012137;28;20506;-80
2022/04/16 00:39:53;;;;;;;5.57;3.70;;;8.40;99.90;;;;;;5013179;28;20060;-80
2022/04/16 00:42:19;;;;;;;4.80;3.67;;;8.20;99.90;;;;;;5013527;28;20030;-80
2022/04/16 00:44:44;;;;;;;5.33;4.27;;;8.00;99.90;;;;;;5013438;28;20030;-79
2022/04/16 00:47:12;;;;;;;5.23;4.07;;;7.90;99.90;;;;;;5013327;28;20466;-79
2022/04/16 00:49:38;;;;;;;4.87;3.83;;;7.80;99.90;;;;;;5013406;28;20117;-80
2022/04/16 00:52:04;;;;;;;4.87;3.97;;;7.80;99.90;;;;;;5013433;28;20101;-79
2022/04/16 00:54:30;;;;;;;8.37;3.73;;;7.80;99.90;;;;;;5013261;28;20113;-80
2022/04/16 00:56:56;;;;;;;5.63;3.77;;;7.70;99.90;;;;;;5013276;28;20514;-80
2022/04/16 00:59:22;;;;;;;4.30;3.57;;;7.60;99.90;;;;;;5013208;28;20029;-80
2022/04/16 01:01:47;;;;;;;5.27;3.53;;;7.60;99.90;;;;;;5013223;28;20037;-80
2022/04/16 01:04:13;;;;;;;5.10;4.10;;;7.50;99.90;;;;;;5013184;28;20391;-80
2022/04/16 01:06:40;;;;;;;5.43;4.23;;;7.40;99.90;;;;;;5013185;28;20481;-80
2022/04/16 01:09:06;;;;;;;5.33;4.30;;;7.40;99.90;;;;;;5013163;28;20144;-80
2022/04/16 01:11:32;;;;;;;4.63;4.13;;;7.40;99.90;;;;;;5011849;28;20026;-80
2022/04/16 01:14:00;;;;;;;5.67;4.30;;;7.30;99.90;;;;;;5013044;28;20076;-80
2022/04/16 01:16:29;;;;;;;6.57;4.83;;;7.30;99.90;;;;;;5013354;28;20356;-80
2022/04/16 01:18:55;;;;;;;5.43;4.43;;;7.30;99.90;;;;;;5028246;28;20407;-80
2022/04/16 01:21:21;;;;;;;4.63;3.80;;;7.30;99.90;;;;;;5012974;28;20034;-80
2022/04/16 01:23:47;;;;;;;5.73;4.63;;;7.20;99.90;;;;;;5013044;28;20098;-80
2022/04/16 01:26:13;;;;;;;5.00;3.93;;;7.20;99.90;;;;;;5012913;28;20030;-79
2022/04/16 01:28:40;;;;;;;4.60;3.53;;;7.10;99.90;;;;;;5013123;28;20030;-80
2022/04/16 01:31:06;;;;;;;5.20;3.93;;;7.10;99.90;;;;;;5012814;28;20038;-79
2022/04/16 01:33:31;;;;;;;5.53;4.17;;;7.10;99.90;;;;;;5012749;28;20052;-80
2022/04/16 01:35:58;;;;;;;5.80;3.47;;;7.20;99.90;;;;;;5012940;28;20084;-80
2022/04/16 01:38:26;;;;;;;6.30;4.27;;;7.30;99.90;;;;;;5027938;28;20033;-80
2022/04/16 01:40:56;;;;;;;5.53;3.90;;;7.20;99.90;;;;;;5013072;28;20030;-80
2022/04/16 01:43:21;;;;;;;6.23;4.03;;;7.20;99.90;;;;;;5012810;28;20044;-80
2022/04/16 01:45:49;;;;;;;5.97;4.27;;;7.00;99.90;;;;;;5028773;28;20125;-79
2022/04/16 01:48:16;;;;;;;5.37;4.20;;;7.00;99.90;;;;;;5012793;28;20091;-79
2022/04/16 01:50:41;;;;;;;5.93;4.30;;;6.90;99.90;;;;;;5012722;28;20030;-80
2022/04/16 01:53:07;;;;;;;6.53;5.03;;;6.80;99.90;;;;;;5012968;28;20040;-80
2022/04/16 01:55:32;;;;;;;6.50;5.03;;;6.80;99.90;;;;;;5030594;28;20079;-80
2022/04/16 01:57:58;;;;;;;6.93;4.53;;;6.80;99.90;;;;;;5016275;28;20057;-79
2022/04/16 02:00:24;;;;;;;7.30;4.70;;;6.70;99.90;;;;;;5016611;28;20077;-80
2022/04/16 02:02:50;;;;;;;5.40;4.60;;;6.70;99.90;;;;;;5016101;28;20037;-79
2022/04/16 02:05:16;;;;;;;6.47;4.77;;;6.70;99.90;;;;;;5031278;28;20029;-80
2022/04/16 02:07:42;;;;;;;5.73;4.63;;;6.60;99.90;;;;;;5014817;28;20025;-80
2022/04/16 02:10:08;;;;;;;6.13;4.93;;;6.70;99.90;;;;;;5032275;28;20034;-80
2022/04/16 02:12:35;;;;;;;8.10;4.53;;;6.70;99.90;;;;;;5015873;28;20405;-80
2022/04/16 02:15:01;;;;;;;5.43;4.57;;;6.70;99.90;;;;;;5016163;28;20030;-79
2022/04/16 02:17:27;;;;;;;8.00;5.30;;;6.70;99.90;;;;;;5016106;28;20028;-79
2022/04/16 02:19:52;;;;;;;6.13;4.67;;;6.70;99.90;;;;;;5015873;28;20022;-80
2022/04/16 02:22:18;;;;;;;6.60;5.27;;;6.70;99.90;;;;;;5030953;28;20411;-80
2022/04/16 02:24:46;;;;;;;6.13;4.90;;;6.60;99.90;;;;;;5031473;28;20352;-79
2022/04/16 02:27:12;;;;;;;6.20;4.50;;;6.60;99.90;;;;;;5014386;28;20028;-80
2022/04/16 02:29:38;;;;;;;6.23;4.67;;;6.60;99.90;;;;;;5015992;28;20109;-80
2022/04/16 02:32:04;;;;;;;6.60;4.70;;;6.50;99.90;;;;;;5015748;28;20033;-80
2022/04/16 02:34:29;;;;;;;5.93;4.47;;;6.50;99.90;;;;;;5013995;28;20373;-80
2022/04/16 02:36:58;;;;;;;5.17;4.27;;;6.40;99.90;;;;;;5015726;28;20375;-80
2022/04/16 02:39:23;;;;;;;8.13;5.20;;;6.40;99.90;;;;;;5015381;28;20021;-79
2022/04/16 02:41:49;;;;;;;6.77;5.17;;;6.30;99.90;;;;;;5030520;28;20049;-80
2022/04/16 02:47:08;;;;;;;6.70;4.97;;;6.20;99.90;;;;;;5015752;28;20177;-80
2022/04/16 02:49:38;;;;;;;7.60;5.18;;;6.20;99.90;;;;;;5015438;28;20133;-80
2022/04/16 02:52:04;;;;;;;7.20;5.17;;;6.20;99.90;;;;;;5030455;28;20175;-80
2022/04/16 02:54:30;;;;;;;9.43;4.97;;;6.10;99.90;;;;;;5015000;28;20022;-79
2022/04/16 02:56:56;;;;;;;8.23;5.07;;;6.10;99.90;;;;;;5015189;28;20021;-80
2022/04/16 02:59:21;;;;;;;7.30;5.50;;;6.00;99.90;;;;;;5015015;28;20383;-80
2022/04/16 03:01:47;;;;;;;6.53;4.80;;;6.00;99.90;;;;;;5015174;28;20054;-80
2022/04/16 03:04:12;;;;;;;7.00;4.97;;;6.00;99.90;;;;;;5015648;28;20037;-80
2022/04/16 03:06:38;;;;;;;7.23;5.60;;;5.90;99.90;;;;;;5012460;28;20026;-80
2022/04/16 03:09:04;;;;;;;7.07;5.57;;;5.90;99.90;;;;;;5014862;28;20472;-80
2022/04/16 03:11:29;;;;;;;7.03;5.50;;;5.80;99.90;;;;;;5014750;28;20022;-80
2022/04/16 03:13:55;;;;;;;8.43;5.77;;;5.80;99.90;;;;;;5014901;28;20370;-79
2022/04/16 03:19:05;;;;;;;7.90;6.03;;;5.70;99.90;;;;;;5015189;28;20024;-80
2022/04/16 03:21:30;;;;;;;6.10;5.27;;;5.60;99.90;;;;;;5014596;28;20566;-79
2022/04/16 03:23:56;;;;;;;10.10;5.50;;;5.60;99.90;;;;;;5029942;28;20025;-80
2022/04/16 03:26:21;;;;;;;7.80;5.73;;;5.50;99.90;;;;;;5029555;28;20072;-80
2022/04/16 03:28:47;;;;;;;7.20;5.53;;;5.50;99.90;;;;;;5014570;28;20078;-79
2022/04/16 03:31:12;;;;;;;6.27;5.20;;;5.50;99.90;;;;;;5014259;28;20030;-79
2022/04/16 03:33:38;;;;;;;8.13;6.03;;;5.50;99.90;;;;;;5029276;28;20515;-80
2022/04/16 03:36:05;;;;;;;9.30;6.33;;;5.50;99.90;;;;;;5014163;28;20013;-80
2022/04/16 03:38:31;;;;;;;7.60;5.90;;;5.40;99.90;;;;;;5014442;28;20371;-80
2022/04/16 03:40:57;;;;;;;9.57;6.53;;;5.40;99.90;;;;;;5014312;28;20052;-80
2022/04/16 03:43:26;;;;;;;8.77;6.40;;;5.30;99.90;;;;;;5014703;28;20026;-80
2022/04/16 03:45:51;;;;;;;8.27;5.90;;;5.30;99.90;;;;;;5014034;28;20030;-80
2022/04/16 03:48:17;;;;;;;6.90;5.37;;;5.30;99.90;;;;;;5014340;28;20040;-80
2022/04/16 03:50:42;;;;;;;9.43;5.57;;;5.20;99.90;;;;;;5013929;28;20403;-80
2022/04/16 03:53:08;;;;;;;6.43;5.37;;;5.20;99.90;;;;;;5014446;28;20026;-80
2022/04/16 04:01:05;;;;;;;9.05;5.88;;;5.10;99.90;;;;;;5014067;28;20105;-80
2022/04/16 04:03:31;;;;;;;7.37;5.60;;;5.10;99.90;;;;;;5013785;28;20030;-80
2022/04/16 04:05:58;;;;;;;10.70;6.33;;;5.10;99.90;;;;;;5014289;28;20050;-81
2022/04/16 04:08:25;;;;;;;9.70;6.07;;;5.10;99.90;;;;;;5013674;28;20097;-80
2022/04/16 04:10:51;;;;;;;8.03;5.80;;;5.00;99.90;;;;;;5012353;28;20026;-80
2022/04/16 04:13:17;;;;;;;10.23;5.87;;;5.00;99.90;;;;;;5013563;28;20029;-80
2022/04/16 04:15:43;;;;;;;8.47;5.70;;;4.90;99.90;;;;;;5013538;28;20030;-80
2022/04/16 04:18:09;;;;;;;8.77;6.00;;;4.90;99.90;;;;;;5028497;28;20022;-80
2022/04/16 04:20:35;;;;;;;7.57;6.00;;;4.90;99.90;;;;;;5013588;28;20026;-80
2022/04/16 04:23:02;;;;;;;8.70;5.80;;;4.90;99.90;;;;;;5012267;28;20026;-80
2022/04/16 04:25:27;;;;;;;8.87;6.27;;;4.90;99.90;;;;;;5013970;28;20034;-80
2022/04/16 04:27:53;;;;;;;8.33;6.00;;;4.90;99.90;;;;;;5028617;28;20037;-80
2022/04/16 04:30:19;;;;;;;8.40;6.47;;;4.90;99.90;;;;;;5028609;28;20026;-80
2022/04/16 04:32:44;;;;;;;8.83;6.20;;;4.80;99.90;;;;;;5028422;28;20050;-80
2022/04/16 04:35:10;;;;;;;9.67;6.90;;;4.80;99.90;;;;;;5014547;28;20075;-80
2022/04/16 04:37:36;;;;;;;11.00;6.57;;;4.80;99.90;;;;;;5013453;28;20026;-80
2022/04/16 04:40:02;;;;;;;7.97;5.97;;;4.80;99.90;;;;;;5013316;28;20043;-80
2022/04/16 04:42:30;;;;;;;8.00;6.03;;;4.70;99.90;;;;;;5013503;28;20426;-80
2022/04/16 04:44:56;;;;;;;8.47;6.40;;;4.70;99.90;;;;;;5028834;28;20037;-80
2022/04/16 04:47:22;;;;;;;11.67;6.90;;;4.70;99.90;;;;;;5013658;28;20105;-80
2022/04/16 04:49:48;;;;;;;8.40;6.37;;;4.70;99.90;;;;;;5013916;28;20038;-80
2022/04/16 04:52:21;;;;;;;8.93;6.87;;;4.70;99.90;;;;;;5012535;28;20030;-80
2022/04/16 04:54:47;;;;;;;10.07;6.73;;;4.70;99.90;;;;;;5028738;28;20160;-80
2022/04/16 04:57:13;;;;;;;11.37;6.90;;;4.70;99.90;;;;;;5013543;28;20097;-80
2022/04/16 04:59:38;;;;;;;10.60;6.97;;;4.80;99.90;;;;;;5028559;28;20065;-80
2022/04/16 05:02:05;;;;;;;8.53;6.67;;;4.90;99.90;;;;;;5028665;28;20026;-80
2022/04/16 05:04:31;;;;;;;8.93;6.80;;;4.90;99.90;;;;;;5013341;28;20033;-80
2022/04/16 05:06:57;;;;;;;9.83;6.80;;;5.00;99.90;;;;;;5028221;28;20025;-80
2022/04/16 05:09:23;;;;;;;8.00;6.47;;;5.00;99.90;;;;;;5013148;28;20032;-80
2022/04/16 05:11:48;;;;;;;8.97;6.87;;;5.10;99.90;;;;;;5013306;28;20108;-80
2022/04/16 05:14:15;;;;;;;9.03;6.63;;;5.20;99.90;;;;;;5013396;28;20114;-81
2022/04/16 05:16:41;;;;;;;13.00;7.47;;;5.30;99.90;;;;;;5028153;28;20022;-81
2022/04/16 05:19:07;;;;;;;11.27;7.10;;;5.30;99.90;;;;;;5013020;28;20033;-80
2022/04/16 05:21:32;;;;;;;10.87;8.03;;;5.40;99.90;;;;;;5013605;28;20064;-80
2022/04/16 05:23:58;;;;;;;11.43;7.03;;;5.50;99.90;;;;;;5013257;28;20092;-80
2022/04/16 05:26:23;;;;;;;10.47;8.20;;;5.60;99.90;;;;;;5013560;28;20022;-80
2022/04/16 05:28:49;;;;;;;9.47;7.00;;;5.70;99.90;;;;;;5013030;28;20455;-80
2022/04/16 05:31:19;;;;;;;8.90;6.73;;;5.80;99.90;;;;;;5016832;28;20332;-80
2022/04/16 05:36:31;;;;;;;7.60;6.13;;;6.10;99.90;;;;;;4998044;28;20033;-80
2022/04/16 05:38:56;;;;;;;10.53;7.17;;;6.20;99.90;;;;;;5020213;28;20377;-85
2022/04/16 05:41:41;;;;;;;9.33;7.07;;;6.30;99.90;;;;;;5028796;28;20079;-84
2022/04/16 05:47:41;;;;;;;7.67;6.40;;;6.40;99.90;;;;;;4717397;28;20691;-82
2022/04/16 05:50:07;;;;;;;9.00;6.77;;;6.50;99.90;;;;;;4986032;28;20026;-80
2022/04/16 05:52:52;;;;;;;10.37;7.07;;;6.60;99.90;;;;;;4987310;28;20041;-82
2022/04/16 05:55:18;;;;;;;;;;;6.70;99.90;;;;;;4973607;28;20039;-80
2022/04/16 05:57:45;;;;;;;9.67;7.03;;;6.70;99.90;;;;;;4983716;28;19921;-77
2022/04/16 06:00:13;;;;;;;9.73;7.53;;;6.80;99.90;;;;;;4992591;28;20497;-78
2022/04/16 06:02:40;;;;;;;12.67;7.37;;;6.90;99.90;;;;;;4981148;28;20054;-80
2022/04/16 06:05:06;;;;;;;29.47;21.07;;;7.00;99.90;;;;;;5012412;28;20115;-79
2022/04/16 06:07:32;;;;;;;11.27;8.10;;;7.10;99.90;;;;;;5000418;28;20026;-80
2022/04/16 06:09:57;;;;;;;10.03;7.80;;;7.30;99.90;;;;;;4997790;28;20045;-79
2022/04/16 06:12:26;;;;;;;9.47;7.00;;;7.40;99.90;;;;;;5012458;28;20038;-79
2022/04/16 06:14:52;;;;;;;8.83;6.77;;;7.50;99.90;;;;;;4996755;28;20033;-79
2022/04/16 06:17:18;;;;;;;10.80;6.53;;;7.50;99.90;;;;;;5011875;28;20030;-79
2022/04/16 06:19:43;;;;;;;8.27;6.70;;;7.60;99.90;;;;;;5010185;28;20022;-79
2022/04/16 06:22:11;;;;;;;8.20;6.60;;;7.90;99.90;;;;;;5010367;28;20036;-79
2022/04/16 06:24:41;;;;;;;9.97;7.97;;;8.10;99.90;;;;;;5011988;28;20113;-76
2022/04/16 06:27:06;;;;;;;10.37;7.60;;;8.30;99.90;;;;;;5015658;28;20104;-76
2022/04/16 06:29:32;;;;;;;8.37;6.53;;;8.20;99.90;;;;;;5015824;28;20062;-77
2022/04/16 06:31:58;;;;;;;7.47;6.60;;;8.30;99.90;;;;;;5015741;28;20029;-76
2022/04/16 06:34:24;;;;;;;8.03;6.83;;;8.50;99.90;;;;;;5015732;28;20025;-76
2022/04/16 06:36:50;;;;;;;8.27;6.63;;;8.60;99.90;;;;;;5015685;28;20056;-77
2022/04/16 06:39:15;;;;;;;8.00;6.80;;;8.50;99.90;;;;;;5015854;28;20056;-77
2022/04/16 06:41:41;;;;;;;8.10;6.30;;;8.80;99.90;;;;;;5015339;28;20026;-77
2022/04/16 06:44:06;;;;;;;9.87;6.47;;;8.70;99.90;;;;;;5015785;28;20028;-77
2022/04/16 06:46:35;;;;;;;8.73;6.07;;;8.60;99.90;;;;;;5014801;28;20137;-77
2022/04/16 06:49:01;;;;;;;10.23;7.00;;;8.60;99.90;;;;;;5014488;28;20362;-77
2022/04/16 06:51:26;;;;;;;9.97;7.00;;;8.70;99.90;;;;;;5015280;28;20026;-76
2022/04/16 06:53:52;;;;;;;8.80;7.00;;;8.60;99.90;;;;;;5015553;28;20080;-77
2022/04/16 06:56:17;;;;;;;10.23;8.00;;;8.90;99.90;;;;;;5013754;28;20170;-77
2022/04/16 06:58:43;;;;;;;9.77;6.93;;;9.10;99.90;;;;;;5015154;28;20033;-76
2022/04/16 07:01:08;;;;;;;16.77;12.07;;;9.20;99.90;;;;;;5015096;28;20060;-78
2022/04/16 07:03:35;;;;;;;8.10;6.50;;;9.10;99.90;;;;;;5015363;28;20030;-77
2022/04/16 07:06:00;;;;;;;12.93;10.63;;;9.20;99.90;;;;;;5015120;28;20054;-77
2022/04/16 07:08:26;;;;;;;14.43;9.47;;;9.20;99.90;;;;;;4992167;28;20109;-75
2022/04/16 07:10:52;;;;;;;10.53;8.90;;;9.20;99.90;;;;;;4991090;28;20102;-75
2022/04/16 07:13:18;;;;;;;9.50;6.37;;;9.20;99.90;;;;;;4976244;28;20167;-76
2022/04/16 07:15:44;;;;;;;9.10;6.37;;;9.20;99.90;;;;;;4990693;28;20520;-76
2022/04/16 07:18:10;;;;;;;8.97;6.97;;;9.20;99.90;;;;;;4975956;28;20019;-76
2022/04/16 07:20:36;;;;;;;8.60;6.70;;;9.00;99.90;;;;;;4975893;28;20049;-76
2022/04/16 07:23:01;;;;;;;8.93;6.67;;;9.00;99.90;;;;;;4990514;28;20468;-76
2022/04/16 07:25:27;;;;;;;8.80;6.60;;;9.00;99.90;;;;;;4990449;28;20515;-76
2022/04/16 07:27:54;;;;;;;8.37;6.90;;;9.00;99.90;;;;;;4975824;28;20050;-75
2022/04/16 07:30:20;;;;;;;8.53;7.23;;;9.10;99.90;;;;;;4991122;28;20081;-81
2022/04/16 07:32:46;;;;;;;11.70;6.53;;;9.10;99.90;;;;;;4994668;28;20034;-81
2022/04/16 07:35:11;;;;;;;8.70;6.10;;;9.10;99.90;;;;;;4994728;28;20033;-80
2022/04/16 07:37:37;;;;;;;8.67;6.93;;;9.30;99.90;;;;;;4994681;28;20068;-81
2022/04/16 07:40:03;;;;;;;7.93;6.43;;;9.30;99.90;;;;;;4994634;28;20069;-81
2022/04/16 07:42:28;;;;;;;7.93;6.40;;;9.20;99.90;;;;;;4992666;28;20094;-81
2022/04/16 07:44:57;;;;;;;7.43;5.77;;;9.40;99.90;;;;;;4993497;28;20034;-80
2022/04/16 07:47:22;;;;;;;7.47;5.67;;;9.50;99.90;;;;;;4995263;28;20051;-81
2022/04/16 07:49:48;;;;;;;8.53;6.20;;;9.50;99.90;;;;;;4994835;28;20037;-82
2022/04/16 07:52:14;;;;;;;6.77;5.90;;;9.60;99.90;;;;;;4992617;28;20479;-82
2022/04/16 07:54:39;;;;;;;7.30;6.33;;;9.60;99.90;;;;;;4994494;28;20379;-82
2022/04/16 07:57:06;;;;;;;6.83;5.67;;;9.60;99.90;;;;;;4994251;28;20034;-82
2022/04/16 07:59:32;;;;;;;7.83;6.57;;;9.50;99.90;;;;;;4994332;28;20452;-81
2022/04/16 08:01:57;;;;;;;8.00;6.83;;;9.40;99.90;;;;;;4994624;28;20026;-81
2022/04/16 08:04:23;;;;;;;9.53;8.50;;;9.40;99.90;;;;;;4994066;28;20026;-82
2022/04/16 08:06:48;;;;;;;7.13;5.97;;;9.30;99.90;;;;;;4994048;28;20105;-82
2022/04/16 08:09:14;;;;;;;9.50;8.47;;;9.20;99.90;;;;;;4994427;28;20030;-82
2022/04/16 08:11:41;;;;;;;19.80;18.00;;;9.20;99.90;;;;;;4994293;28;20050;-81
2022/04/16 08:14:07;;;;;;;8.90;7.50;;;9.10;99.90;;;;;;4992706;28;20080;-82
2022/04/16 08:16:32;;;;;;;8.63;7.53;;;9.00;99.90;;;;;;4994075;28;20030;-82
2022/04/16 08:18:58;;;;;;;11.00;8.60;;;9.10;99.90;;;;;;4994172;28;20041;-82
2022/04/16 08:21:27;;;;;;;6.87;6.13;;;9.10;99.90;;;;;;4994182;28;20038;-82
2022/04/16 08:24:03;;;;;;;8.87;6.27;;;9.00;99.90;;;;;;4993884;28;20021;-82
2022/04/16 08:26:29;;;;;;;68.13;36.67;;;9.10;99.90;;;;;;4994319;28;20018;-83
2022/04/16 08:28:54;;;;;;;55.83;29.63;;;9.20;99.90;;;;;;4992505;28;20026;-83
2022/04/16 08:31:20;;;;;;;65.77;35.33;;;9.30;99.90;;;;;;4992693;28;20028;-82
2022/04/16 08:33:46;;;;;;;16.10;12.67;;;9.50;99.90;;;;;;4992409;28;20026;-83
2022/04/16 08:36:11;;;;;;;8.03;6.20;;;9.60;99.90;;;;;;4993770;28;20424;-83
2022/04/16 08:38:37;;;;;;;8.23;6.17;;;9.70;99.90;;;;;;4992896;28;20027;-83
2022/04/16 08:41:04;;;;;;;90.97;49.10;;;9.70;99.90;;;;;;4993935;28;20030;-83
2022/04/16 08:43:30;;;;;;;33.53;21.33;;;9.70;99.90;;;;;;4993986;28;20475;-83
2022/04/16 08:45:56;;;;;;;17.10;12.43;;;9.70;99.90;;;;;;4992687;28;20034;-83
2022/04/16 08:48:22;;;;;;;9.23;6.77;;;9.70;99.90;;;;;;4993600;28;20463;-83
2022/04/16 08:50:48;;;;;;;33.87;30.47;;;10.00;99.90;;;;;;4993814;28;20061;-83
2022/04/16 08:53:14;;;;;;;6.83;5.90;;;9.90;99.90;;;;;;4993711;28;20448;-83
2022/04/16 08:55:40;;;;;;;7.50;6.00;;;10.10;99.90;;;;;;4993583;28;20026;-83
2022/04/16 08:58:05;;;;;;;6.50;5.80;;;10.20;99.90;;;;;;4993850;28;20081;-82
2022/04/16 09:00:31;;;;;;;6.67;5.53;;;10.30;99.90;;;;;;4993713;28;20078;-82
2022/04/16 09:02:59;;;;;;;6.47;5.20;;;10.30;99.90;;;;;;4993760;28;20371;-82
2022/04/16 09:05:26;;;;;;;6.97;5.53;;;10.30;99.90;;;;;;4997837;28;20038;-82
2022/04/16 09:07:57;;;;;;;15.37;9.03;;;10.30;99.90;;;;;;4997279;28;20026;-82
2022/04/16 09:10:28;;;;;;;15.00;8.30;;;10.30;99.90;;;;;;4997814;28;20085;-82
2022/04/16 09:12:56;;;;;;;7.13;6.10;;;10.10;99.90;;;;;;4997774;28;20035;-82
2022/04/16 09:15:23;;;;;;;6.43;5.63;;;10.20;99.90;;;;;;4997816;28;20018;-82
2022/04/16 09:18:00;;;;;;;9.30;6.47;;;10.30;99.90;;;;;;4997485;28;20097;-82
2022/04/16 09:20:36;;;;;;;7.87;5.93;;;10.20;99.90;;;;;;4997496;28;20105;-82
2022/04/16 09:23:16;;;;;;;8.13;6.40;;;10.30;99.90;;;;;;4997266;28;20355;-82
2022/04/16 09:25:43;;;;;;;9.30;5.80;;;10.10;99.90;;;;;;4997161;28;20022;-82
2022/04/16 09:28:08;;;;;;;7.03;5.43;;;10.00;99.90;;;;;;4997347;28;20155;-82
2022/04/16 09:30:34;;;;;;;6.57;5.43;;;10.00;99.90;;;;;;4997116;28;20157;-81
2022/04/16 09:33:01;;;;;;;6.10;5.47;;;10.00;99.90;;;;;;4996982;28;20083;-81
2022/04/16 09:35:37;;;;;;;7.23;6.13;;;9.80;99.90;;;;;;4997374;28;20031;-83
2022/04/16 09:38:04;;;;;;;7.00;5.00;;;9.70;99.90;;;;;;4997033;28;20018;-84
2022/04/16 09:40:31;;;;;;;5.80;4.93;;;9.70;99.90;;;;;;4995102;28;20053;-83
2022/04/16 09:43:00;;;;;;;5.80;4.53;;;9.80;99.90;;;;;;4990859;28;20475;-83
2022/04/16 09:45:27;;;;;;;4.67;4.13;;;10.00;99.90;;;;;;4991435;28;20117;-83
2022/04/16 09:47:53;;;;;;;5.37;4.50;;;10.00;99.90;;;;;;4991852;28;20426;-83
2022/04/16 09:50:27;;;;;;;5.37;4.37;;;10.00;99.90;;;;;;4990994;28;20165;-82
2022/04/16 09:52:54;;;;;;;6.17;4.63;;;10.00;99.90;;;;;;4994051;28;20117;-82
2022/04/16 09:55:22;;;;;;;5.23;4.30;;;10.00;99.90;;;;;;4996698;28;20041;-82
2022/04/16 09:57:58;;;;;;;5.00;4.13;;;10.00;99.90;;;;;;4996558;28;20022;-80
2022/04/16 10:00:24;;;;;;;;;;;10.00;99.90;;;;;;4997045;28;20029;-81
2022/04/16 10:02:51;;;;;;;6.40;4.40;;;10.10;99.90;;;;;;4996797;28;19988;-81
2022/04/16 10:05:19;;;;;;;5.60;4.73;;;10.00;99.90;;;;;;4996529;28;20074;-81
2022/04/16 10:07:47;;;;;;;6.37;4.50;;;10.10;99.90;;;;;;4994648;28;20053;-81
2022/04/16 10:10:19;;;;;;;6.37;5.20;;;10.20;99.90;;;;;;4996313;28;20030;-81
2022/04/16 10:13:05;;;;;;;8.40;5.23;;;10.30;99.90;;;;;;4996542;28;20027;-81
2022/04/16 10:15:51;;;;;;;;;;;10.30;99.90;;;;;;4996265;28;20113;-81
2022/04/16 10:18:17;;;;;;;6.50;5.32;;;10.40;99.90;;;;;;4996070;28;19906;-81
2022/04/16 10:20:52;;;;;;;5.33;4.70;;;10.30;99.90;;;;;;4996206;28;20042;-81
2022/04/16 10:23:29;;;;;;;5.50;4.63;;;10.10;99.90;;;;;;4994761;28;20109;-81
2022/04/16 10:26:15;;;;;;;7.90;5.20;;;10.10;99.90;;;;;;4994752;28;20038;-81
2022/04/16 10:28:54;;;;;;;5.97;4.77;;;10.10;99.90;;;;;;4995994;28;20025;-81
2022/04/16 10:31:30;;;;;;;9.20;6.40;;;10.00;99.90;;;;;;4992597;28;20046;-82
2022/04/16 10:34:03;;;;;;;10.50;6.97;;;10.00;99.90;;;;;;4999439;28;20030;-83
2022/04/16 10:36:56;;;;;;;6.70;5.30;;;9.90;99.90;;;;;;5011029;28;20026;-82
2022/04/16 10:39:34;;;;;;;6.00;4.80;;;9.90;99.90;;;;;;5007802;28;20091;-82
2022/04/16 10:42:05;;;;;;;5.70;4.80;;;9.80;99.90;;;;;;5012890;28;20525;-82
2022/04/16 10:44:44;;;;;;;4.40;3.80;;;9.80;99.90;;;;;;5009436;28;20033;-82
2022/04/16 10:47:19;;;;;;;5.30;4.00;;;10.00;99.90;;;;;;5000398;28;20081;-82
2022/04/16 10:49:45;;;;;;;4.35;3.60;;;10.00;99.90;;;;;;5000488;28;20026;-82
2022/04/16 10:52:21;;;;;;;4.80;3.83;;;10.10;99.90;;;;;;4996019;28;20083;-82
2022/04/16 10:54:48;;;;;;;4.40;3.87;;;10.20;99.90;;;;;;4998459;28;20123;-82
2022/04/16 10:57:23;;;;;;;5.17;4.30;;;10.40;99.90;;;;;;5000186;28;20874;-82
2022/04/16 10:59:49;;;;;;;4.32;3.72;;;10.40;99.90;;;;;;4992364;28;20353;-82
2022/04/16 11:02:38;;;;;;;5.03;3.67;;;10.40;99.90;;;;;;4995458;28;20097;-84
2022/04/16 11:05:11;;;;;;;6.20;4.73;;;10.40;99.90;;;;;;4991476;28;20037;-84
2022/04/16 11:07:38;;;;;;;5.73;4.87;;;10.40;99.90;;;;;;4994232;28;20386;-84
2022/04/16 11:10:10;;;;;;;7.03;5.63;;;10.30;99.90;;;;;;4994720;28;20467;-81
2022/04/16 11:12:37;;;;;;;6.37;4.93;;;10.20;99.90;;;;;;4993429;28;20026;-73
2022/04/16 11:15:08;;;;;;;7.23;5.30;;;10.20;99.90;;;;;;4996826;28;20483;-82
2022/04/16 11:17:34;;;;;;;6.60;5.10;;;10.30;99.90;;;;;;5001673;28;20052;-72
2022/04/16 11:20:02;;;;;;;6.80;4.80;;;10.40;99.90;;;;;;5014122;28;20053;-87
2022/04/16 11:22:28;;;;;;;5.33;4.30;;;10.60;99.90;;;;;;5004387;28;20137;-86
2022/04/16 11:24:56;;;;;;;5.87;4.90;;;10.80;99.90;;;;;;4993516;28;20062;-87
2022/04/16 11:35:59;;;;;;;5.53;4.33;;;11.20;99.90;;;;;;4994485;28;20038;-88
2022/04/16 11:38:29;;;;;;;6.67;4.90;;;11.10;99.90;;;;;;4993941;28;20100;-87
2022/04/16 11:40:57;;;;;;;6.73;4.80;;;11.00;99.90;;;;;;4992856;28;20664;-88
2022/04/16 11:43:25;;;;;;;5.57;4.27;;;11.10;99.90;;;;;;4993975;28;20050;-87
2022/04/16 11:45:51;;;;;;;5.00;4.33;;;11.20;99.90;;;;;;4993501;28;20034;-87
2022/04/16 11:48:25;;;;;;;5.37;4.33;;;11.20;99.90;;;;;;5111882;27;20121;-87
2022/04/16 11:50:51;;;;;;;5.47;4.60;;;11.10;99.90;;;;;;5106448;28;20035;-87
2022/04/16 11:53:17;;;;;;;5.70;4.33;;;11.10;99.90;;;;;;5109609;28;20031;-87
2022/04/16 11:55:47;;;;;;;6.10;4.03;;;11.10;99.90;;;;;;5109780;28;20089;-86
2022/04/16 11:58:13;;;;;;;5.00;4.20;;;11.10;99.90;;;;;;5109967;28;20028;-87
2022/04/16 12:00:55;;;;;;;5.17;4.33;;;11.00;99.90;;;;;;5109916;28;20039;-87
2022/04/16 12:03:21;;;;;;;5.83;4.37;;;11.10;99.90;;;;;;5108488;28;20092;-87
2022/04/16 12:05:48;;;;;;;5.40;4.40;;;11.20;99.90;;;;;;5108398;28;20487;-87
2022/04/16 12:08:16;;;;;;;11.73;9.63;;;11.40;99.90;;;;;;5088486;28;20074;-87
2022/04/16 12:10:48;;;;;;;12.68;7.78;;;11.30;99.90;;;;;;5106696;28;20085;-87
2022/04/16 12:13:14;;;;;;;7.23;5.67;;;11.70;99.90;;;;;;5102805;28;20056;-87
2022/04/16 12:15:42;;;;;;;8.03;7.20;;;11.80;99.90;;;;;;5088664;28;20102;-87
2022/04/16 12:18:12;;;;;;;9.00;6.57;;;11.60;99.90;;;;;;5069249;28;20028;-86
2022/04/16 12:20:42;;;;;;;8.47;6.80;;;11.30;99.90;;;;;;5087364;28;20033;-87
2022/04/16 12:23:13;;;;;;;8.77;7.03;;;11.20;99.90;;;;;;5086704;28;20024;-86
2022/04/16 12:25:39;;;;;;;9.77;6.87;;;11.10;99.90;;;;;;5087532;28;20032;-86
2022/04/16 12:28:14;;;;;;;11.47;7.30;;;11.20;99.90;;;;;;5088471;28;20039;-86
2022/04/16 12:30:47;;;;;;;10.90;7.63;;;11.20;99.90;;;;;;5088821;28;20024;-86
2022/04/16 12:33:12;;;;;;;8.97;7.30;;;11.00;99.90;;;;;;5089031;28;20073;-86
2022/04/16 12:35:40;;;;;;;9.30;7.17;;;11.30;99.90;;;;;;5088616;28;20407;-87
2022/04/16 12:38:06;;;;;;;10.97;7.87;;;11.70;99.90;;;;;;5088666;28;20039;-87
2022/04/16 12:40:33;;;;;;;9.18;7.10;;;11.80;99.90;;;;;;5088267;28;20500;-86
2022/04/16 12:43:00;;;;;;;8.55;6.43;;;12.30;99.90;;;;;;5088579;28;20028;-86
2022/04/16 12:45:27;;;;;;;12.70;6.53;;;12.70;99.90;;;;;;5087895;28;20381;-86
2022/04/16 12:47:53;;;;;;;10.85;6.70;;;13.20;99.90;;;;;;5079093;28;20047;-86
2022/04/16 12:50:19;;;;;;;8.02;6.70;;;13.50;99.90;;;;;;5088034;28;20350;-86
2022/04/16 12:52:47;;;;;;;9.90;6.78;;;13.70;99.90;;;;;;5069796;28;20035;-87
2022/04/16 12:55:14;;;;;;;6.35;5.22;;;14.10;99.90;;;;;;5088281;28;20369;-86
2022/04/16 12:57:40;;;;;;;8.88;5.47;;;14.10;99.90;;;;;;5053251;28;20086;-86
2022/04/16 13:00:10;;;;;;;7.35;5.75;;;14.20;99.90;;;;;;5059288;28;20092;-87
2022/04/16 13:02:41;;;;;;;8.15;5.88;;;14.30;99.90;;;;;;5054225;28;20076;-87
2022/04/16 13:05:08;;;;;;;7.25;5.88;;;14.40;99.90;;;;;;5069300;28;20039;-87
2022/04/16 13:07:35;;;;;;;7.60;6.07;;;14.30;99.90;;;;;;5074503;28;20028;-87
2022/04/16 13:10:00;;;;;;;7.72;6.40;;;14.30;99.90;;;;;;5056423;28;20055;-87
2022/04/16 13:12:26;;;;;;;7.13;5.60;;;14.20;99.90;;;;;;5072163;28;20079;-87
2022/04/16 13:14:52;;;;;;;7.75;5.50;;;14.30;99.90;;;;;;5054214;28;20120;-86
2022/04/16 13:17:17;;;;;;;7.72;5.55;;;14.70;99.90;;;;;;5055355;28;20436;-80
2022/04/16 13:19:43;;;;;;;7.22;5.35;;;15.00;99.90;;;;;;5051587;28;20021;-69